Lindsey Graham — WDG9563 — position and weather

sailwx.info

Track history (hours):
 
Tides and Currents Weather Stations Pressure Air Temp Water Temp Dewpoint Dewpoint Depression Visibility Wind Speed Wind Dir Waves Ship Positions

Lindsey Graham

Owner: Blessey Enterprises, Inc., Harahan, LA. More information available from US FCC via Universal Licensing System and Coast Guard Vessel Documentation Center.

Last reported at 2018-Feb-18 06:30 UTC. Time now 2018-Feb-18 06:59 UTC.
Position N 29°52' W 093°60'.

Length 26 m.

Type: Towing. MMSI: 367589050.

Date/timePositionNaut miles runAvg speedWind from/ knotsBaromVisibWave heightAir tempDewpointWater temp
2018-Feb-18 06:30N 29°52' W 093°60'0 0.0
2018-Feb-18 06:00N 29°52' W 093°60'0 0.0
2018-Feb-18 05:30N 29°52' W 093°60'0 0.0
2018-Feb-18 05:00N 29°52' W 093°60'0 0.0
2018-Feb-18 04:30N 29°52' W 093°60'0 0.0
2018-Feb-18 04:00N 29°52' W 093°60'0 0.0
2018-Feb-18 03:30N 29°52' W 093°60'0 0.0
2018-Feb-18 03:00N 29°52' W 093°60'0 0.0
2018-Feb-18 02:30N 29°52' W 093°60'0 0.0
2018-Feb-18 02:00N 29°52' W 093°60'0 0.0
2018-Feb-18 01:30N 29°52' W 093°60'0 0.0
2018-Feb-18 01:00N 29°52' W 093°60'0 0.0
2018-Feb-18 00:30N 29°52' W 093°60'0 0.0
2018-Feb-18 00:00N 29°52' W 093°60'0 0.0
2018-Feb-17 23:30N 29°52' W 093°60'0 0.0
2018-Feb-17 23:00N 29°52' W 093°60'2 3.3
2018-Feb-17 22:30N 29°50' W 093°59'1 2.7
2018-Feb-17 22:00N 29°51' W 093°59'1 1.1
2018-Feb-17 21:30N 29°52' W 093°60'1 2.0
2018-Feb-17 21:00N 29°51' W 093°59'1 2.0
2018-Feb-17 20:30N 29°50' W 093°59'0 0.0
2018-Feb-17 20:00N 29°50' W 093°59'1 1.5
2018-Feb-17 19:30N 29°49' W 093°59'1 2.3
2018-Feb-17 19:00N 29°49' W 093°58'4 7.4
2018-Feb-17 18:30N 29°52' W 093°56'4 8.9
2018-Feb-17 18:00N 29°56' W 093°52'3 5.5
2018-Feb-17 17:30N 29°58' W 093°51'0 0.2
2018-Feb-17 16:59N 29°58' W 093°51'0 0.0
2018-Feb-17 16:30N 29°58' W 093°51'0 0.0
2018-Feb-17 16:00N 29°58' W 093°51'0 0.0
2018-Feb-17 15:30N 29°58' W 093°51'0 0.0
2018-Feb-17 15:00N 29°58' W 093°51'0 0.0
2018-Feb-17 14:30N 29°58' W 093°51'0 0.0
2018-Feb-17 13:59N 29°58' W 093°51'0 0.0
2018-Feb-17 13:29N 29°58' W 093°51'0 0.0
2018-Feb-17 13:00N 29°58' W 093°51'0 0.0
2018-Feb-17 12:30N 29°58' W 093°51'0 0.0
2018-Feb-17 12:01N 29°58' W 093°51'0 0.0
2018-Feb-17 11:30N 29°58' W 093°51'0 0.0
2018-Feb-17 11:00N 29°58' W 093°51'0 0.0
2018-Feb-17 10:30N 29°58' W 093°51'0 0.0
2018-Feb-17 10:00N 29°58' W 093°51'0 0.0
2018-Feb-17 09:30N 29°58' W 093°51'0 0.0
2018-Feb-17 09:00N 29°58' W 093°51'0 0.0
2018-Feb-17 08:30N 29°58' W 093°51'0 0.0
2018-Feb-17 08:00N 29°58' W 093°51'0 0.0
2018-Feb-17 07:30N 29°58' W 093°51'0 0.0
2018-Feb-17 07:00N 29°58' W 093°51'0 0.0
2018-Feb-17 06:30N 29°58' W 093°51'0 0.0
2018-Feb-17 06:00N 29°58' W 093°51'0 0.0
2018-Feb-17 05:30N 29°58' W 093°51'0 0.0
2018-Feb-17 05:00N 29°58' W 093°51'0 0.0
2018-Feb-17 04:30N 29°58' W 093°51'0 0.0
2018-Feb-17 04:00N 29°58' W 093°51'0 0.0
2018-Feb-17 03:31N 29°58' W 093°51'0 0.0
2018-Feb-17 03:00N 29°58' W 093°51'0 0.0
2018-Feb-17 02:30N 29°58' W 093°51'0 0.8
2018-Feb-17 02:00N 29°58' W 093°51'0 0.0
2018-Feb-17 01:30N 29°58' W 093°51'0 0.0
2018-Feb-17 01:00N 29°58' W 093°51'0 1.0
2018-Feb-17 00:30N 29°58' W 093°51'2 4.4
2018-Feb-17 00:00N 29°59' W 093°49'4 7.3
2018-Feb-16 23:30N 30°01' W 093°45'3 6.2
2018-Feb-16 22:59N 30°03' W 093°42'3 5.4
2018-Feb-16 22:30N 30°04' W 093°39'3 5.4
2018-Feb-16 22:00N 30°04' W 093°36'2 4.9
2018-Feb-16 21:30N 30°04' W 093°34'2 4.8
2018-Feb-16 21:00N 30°04' W 093°31'2 4.9
2018-Feb-16 20:30N 30°04' W 093°28'2 4.7
2018-Feb-16 20:00N 30°04' W 093°25'2 4.7
2018-Feb-16 19:30N 30°04' W 093°23'2 3.8
2018-Feb-16 19:00N 30°04' W 093°21'2 4.2
2018-Feb-16 18:30N 30°06' W 093°20'3 6.1
2018-Feb-16 18:00N 30°09' W 093°20'3 6.2
2018-Feb-16 17:30N 30°12' W 093°17'2 4.1
2018-Feb-16 17:00N 30°13' W 093°16'0 0.9
2018-Feb-16 16:30N 30°13' W 093°15'0 0.9
2018-Feb-16 16:00N 30°14' W 093°15'0 0.0
2018-Feb-16 15:30N 30°14' W 093°15'0 0.0
2018-Feb-16 15:00N 30°14' W 093°15'0 0.0
2018-Feb-16 14:30N 30°14' W 093°15'0 0.0
2018-Feb-16 14:00N 30°14' W 093°15'0 0.0
2018-Feb-16 13:30N 30°14' W 093°15'0 0.0
2018-Feb-16 13:00N 30°14' W 093°15'0 0.0
2018-Feb-16 12:30N 30°14' W 093°15'0 0.0
2018-Feb-16 11:57N 30°14' W 093°15'0 0.0
2018-Feb-16 11:30N 30°14' W 093°15'0 0.0
2018-Feb-16 11:00N 30°14' W 093°15'0 0.0
2018-Feb-16 10:30N 30°14' W 093°15'0 0.0
2018-Feb-16 09:59N 30°14' W 093°15'0 0.0
2018-Feb-16 09:23N 30°14' W 093°15'0 0.0
2018-Feb-16 08:58N 30°14' W 093°15'0 0.0
2018-Feb-16 08:30N 30°14' W 093°15'0 0.0
2018-Feb-16 08:00N 30°14' W 093°15'0 0.0
2018-Feb-16 07:29N 30°14' W 093°15'0 0.0
2018-Feb-16 06:59N 30°14' W 093°15'0 0.0
2018-Feb-16 06:30N 30°14' W 093°15'0 0.0
2018-Feb-16 06:00N 30°14' W 093°15'0 0.0
2018-Feb-16 05:28N 30°14' W 093°15'0 0.0
2018-Feb-16 05:00N 30°14' W 093°15'0 0.0
2018-Feb-16 04:28N 30°14' W 093°15'0 0.0
2018-Feb-16 03:59N 30°14' W 093°15'0 0.0
2018-Feb-16 03:30N 30°14' W 093°15'0 0.0
2018-Feb-16 03:00N 30°14' W 093°15'0 0.0
2018-Feb-16 02:14N 30°14' W 093°15'0 0.0
2018-Feb-16 01:43N 30°14' W 093°15'0 0.0
2018-Feb-16 01:20N 30°14' W 093°15'0 0.0
2018-Feb-16 01:00N 30°14' W 093°15'0 0.0
2018-Feb-16 00:19N 30°14' W 093°15'0 0.0
2018-Feb-15 23:46N 30°14' W 093°15'0 0.0
2018-Feb-15 23:30N 30°14' W 093°15'0 0.0
2018-Feb-15 22:47N 30°14' W 093°15'0 0.0
2018-Feb-15 22:30N 30°14' W 093°15'0 0.0
2018-Feb-15 21:59N 30°14' W 093°15'0 0.0
2018-Feb-15 21:30N 30°14' W 093°15'0 0.0
2018-Feb-15 20:59N 30°14' W 093°15'0 0.0
2018-Feb-15 20:30N 30°14' W 093°15'0 0.0
2018-Feb-15 19:57N 30°14' W 093°15'0 0.0
2018-Feb-15 19:30N 30°14' W 093°15'0 0.0
2018-Feb-15 19:00N 30°14' W 093°15'0 0.0
2018-Feb-15 18:22N 30°14' W 093°15'0 0.0
2018-Feb-15 17:52N 30°14' W 093°15'0 0.0
2018-Feb-15 17:30N 30°14' W 093°15'0 0.0
2018-Feb-15 17:00N 30°14' W 093°15'0 0.0
2018-Feb-15 16:30N 30°14' W 093°15'0 0.0
2018-Feb-15 15:57N 30°14' W 093°15'0 0.0
2018-Feb-15 14:54N 30°14' W 093°15'0 0.0
2018-Feb-15 13:56N 30°14' W 093°15'0 0.0
2018-Feb-15 13:27N 30°14' W 093°15'0 0.0
2018-Feb-15 12:31N 30°14' W 093°15'0 0.0
2018-Feb-15 12:20N 30°14' W 093°15'0 0.0
2018-Feb-15 10:06N 30°14' W 093°15'0 0.0
2018-Feb-15 09:52N 30°14' W 093°15'0 0.0
2018-Feb-15 09:30N 30°14' W 093°15'0 0.0
2018-Feb-15 08:50N 30°14' W 093°15'0 0.0
2018-Feb-15 08:26N 30°14' W 093°15'0 0.0
2018-Feb-15 07:53N 30°14' W 093°15'0 0.0
2018-Feb-15 07:28N 30°14' W 093°15'0 0.0
2018-Feb-15 06:55N 30°14' W 093°15'0 0.0
2018-Feb-15 06:25N 30°14' W 093°15'0 0.0
2018-Feb-15 05:56N 30°14' W 093°15'0 0.0
2018-Feb-15 05:30N 30°14' W 093°15'0 0.0
2018-Feb-15 05:00N 30°14' W 093°15'0 0.0
2018-Feb-15 04:23N 30°14' W 093°15'0 0.0
2018-Feb-15 04:00N 30°14' W 093°15'0 0.0
2018-Feb-15 03:30N 30°14' W 093°15'0 0.0
2018-Feb-15 02:57N 30°14' W 093°15'0 0.0
2018-Feb-15 02:18N 30°14' W 093°15'0 0.0
2018-Feb-15 01:54N 30°14' W 093°15'0 0.0
2018-Feb-15 00:31N 30°14' W 093°15'0 0.0
2018-Feb-15 00:30N 30°14' W 093°15'0 0.0
2018-Feb-14 23:59N 30°14' W 093°15'0 0.0
2018-Feb-14 23:30N 30°14' W 093°15'0 0.0
2018-Feb-14 23:00N 30°14' W 093°15'0 0.0
2018-Feb-14 22:30N 30°14' W 093°15'0 0.0
2018-Feb-14 21:59N 30°14' W 093°15'0 0.0
2018-Feb-14 21:20N 30°14' W 093°15'0 1.1
2018-Feb-14 21:00N 30°13' W 093°15'0 0.5
2018-Feb-14 20:30N 30°13' W 093°16'1 2.2
2018-Feb-14 20:00N 30°12' W 093°16'0 0.0
2018-Feb-14 19:30N 30°12' W 093°16'0 0.0
2018-Feb-14 19:00N 30°12' W 093°16'0 0.0
2018-Feb-14 18:30N 30°12' W 093°16'0 0.0
2018-Feb-14 18:00N 30°12' W 093°16'0 0.0
2018-Feb-14 17:30N 30°12' W 093°16'0 0.0
2018-Feb-14 17:00N 30°12' W 093°16'0 0.0
2018-Feb-14 16:30N 30°12' W 093°16'0 0.0
2018-Feb-14 16:00N 30°12' W 093°16'0 0.0
2018-Feb-14 15:30N 30°12' W 093°16'0 0.0
2018-Feb-14 15:00N 30°12' W 093°16'0 0.0
2018-Feb-14 14:30N 30°12' W 093°16'0 0.0
2018-Feb-14 14:00N 30°12' W 093°16'0 0.0
2018-Feb-14 13:30N 30°12' W 093°16'0 0.0
2018-Feb-14 13:00N 30°12' W 093°16'0 0.0
2018-Feb-14 12:30N 30°12' W 093°16'0 0.0
2018-Feb-14 12:00N 30°12' W 093°16'0 0.0
2018-Feb-14 11:30N 30°12' W 093°16'0 0.0
2018-Feb-14 11:00N 30°12' W 093°16'0 0.0
2018-Feb-14 10:30N 30°12' W 093°16'0 0.0
2018-Feb-14 10:00N 30°12' W 093°16'0 0.0
2018-Feb-14 09:30N 30°12' W 093°16'0 0.7
2018-Feb-14 09:00N 30°12' W 093°17'3 6.1
2018-Feb-14 08:30N 30°10' W 093°19'3 5.8
2018-Feb-14 08:00N 30°07' W 093°20'2 3.3
2018-Feb-14 07:30N 30°06' W 093°19'1 1.0
2018-Feb-14 07:00N 30°06' W 093°18'1 1.1
2018-Feb-14 06:30N 30°05' W 093°18'1 2.2
2018-Feb-14 06:00N 30°05' W 093°17'0 0.9
2018-Feb-14 05:30N 30°04' W 093°16'0 0.5
2018-Feb-14 05:00N 30°04' W 093°16'0 0.8
2018-Feb-14 04:30N 30°04' W 093°16'1 1.7
2018-Feb-14 04:00N 30°03' W 093°16'3 5.4
2018-Feb-14 03:30N 30°01' W 093°14'3 5.8
2018-Feb-14 03:00N 29°59' W 093°12'3 6.1
2018-Feb-14 02:30N 29°56' W 093°10'3 6.2
2018-Feb-14 02:00N 29°56' W 093°06'115 5.1
2018-Feb-13 03:15N 29°34' W 090°56'1 6.0
2018-Feb-13 03:00N 29°33' W 090°54'3 6.0
2018-Feb-13 02:30N 29°32' W 090°51'3 5.9
2018-Feb-13 02:00N 29°32' W 090°48'2 4.3
2018-Feb-13 01:30N 29°33' W 090°45'3 5.1
2018-Feb-13 01:00N 29°34' W 090°43'3 5.5
2018-Feb-13 00:30N 29°37' W 090°42'3 6.1
2018-Feb-13 00:00N 29°36' W 090°39'3 5.8
2018-Feb-12 23:30N 29°35' W 090°36'2 4.7
2018-Feb-12 23:00N 29°34' W 090°33'3 6.1
2018-Feb-12 22:30N 29°34' W 090°30'  
Track history (hours):
 
Tides and Currents Weather Stations Pressure Air Temp Water Temp Dewpoint Dewpoint Depression Visibility Wind Speed Wind Dir Waves Ship Positions

Lindsey Graham

Owner: Blessey Enterprises, Inc., Harahan, LA. More information available from US FCC via Universal Licensing System and Coast Guard Vessel Documentation Center.

Last reported at 2018-Feb-18 06:30 UTC. Time now 2018-Feb-18 06:59 UTC.
Position N 29°52' W 093°60'.

Length 26 m.

Type: Towing. MMSI: 367589050.

Date/timePositionNaut miles runAvg speedWind from/ knotsBaromVisibWave heightAir tempDewpointWater temp
2018-Feb-18 06:30N 29°52' W 093°60'0 0.0
2018-Feb-18 06:00N 29°52' W 093°60'0 0.0
2018-Feb-18 05:30N 29°52' W 093°60'0 0.0
2018-Feb-18 05:00N 29°52' W 093°60'0 0.0
2018-Feb-18 04:30N 29°52' W 093°60'0 0.0
2018-Feb-18 04:00N 29°52' W 093°60'0 0.0
2018-Feb-18 03:30N 29°52' W 093°60'0 0.0
2018-Feb-18 03:00N 29°52' W 093°60'0 0.0
2018-Feb-18 02:30N 29°52' W 093°60'0 0.0
2018-Feb-18 02:00N 29°52' W 093°60'0 0.0
2018-Feb-18 01:30N 29°52' W 093°60'0 0.0
2018-Feb-18 01:00N 29°52' W 093°60'0 0.0
2018-Feb-18 00:30N 29°52' W 093°60'0 0.0
2018-Feb-18 00:00N 29°52' W 093°60'0 0.0
2018-Feb-17 23:30N 29°52' W 093°60'0 0.0
2018-Feb-17 23:00N 29°52' W 093°60'2 3.3
2018-Feb-17 22:30N 29°50' W 093°59'1 2.7
2018-Feb-17 22:00N 29°51' W 093°59'1 1.1
2018-Feb-17 21:30N 29°52' W 093°60'1 2.0
2018-Feb-17 21:00N 29°51' W 093°59'1 2.0
2018-Feb-17 20:30N 29°50' W 093°59'0 0.0
2018-Feb-17 20:00N 29°50' W 093°59'1 1.5
2018-Feb-17 19:30N 29°49' W 093°59'1 2.3
2018-Feb-17 19:00N 29°49' W 093°58'4 7.4
2018-Feb-17 18:30N 29°52' W 093°56'4 8.9
2018-Feb-17 18:00N 29°56' W 093°52'3 5.5
2018-Feb-17 17:30N 29°58' W 093°51'0 0.2
2018-Feb-17 16:59N 29°58' W 093°51'0 0.0
2018-Feb-17 16:30N 29°58' W 093°51'0 0.0
2018-Feb-17 16:00N 29°58' W 093°51'0 0.0
2018-Feb-17 15:30N 29°58' W 093°51'0 0.0
2018-Feb-17 15:00N 29°58' W 093°51'0 0.0
2018-Feb-17 14:30N 29°58' W 093°51'0 0.0
2018-Feb-17 13:59N 29°58' W 093°51'0 0.0
2018-Feb-17 13:29N 29°58' W 093°51'0 0.0
2018-Feb-17 13:00N 29°58' W 093°51'0 0.0
2018-Feb-17 12:30N 29°58' W 093°51'0 0.0
2018-Feb-17 12:01N 29°58' W 093°51'0 0.0
2018-Feb-17 11:30N 29°58' W 093°51'0 0.0
2018-Feb-17 11:00N 29°58' W 093°51'0 0.0
2018-Feb-17 10:30N 29°58' W 093°51'0 0.0
2018-Feb-17 10:00N 29°58' W 093°51'0 0.0
2018-Feb-17 09:30N 29°58' W 093°51'0 0.0
2018-Feb-17 09:00N 29°58' W 093°51'0 0.0
2018-Feb-17 08:30N 29°58' W 093°51'0 0.0
2018-Feb-17 08:00N 29°58' W 093°51'0 0.0
2018-Feb-17 07:30N 29°58' W 093°51'0 0.0
2018-Feb-17 07:00N 29°58' W 093°51'0 0.0
2018-Feb-17 06:30N 29°58' W 093°51'0 0.0
2018-Feb-17 06:00N 29°58' W 093°51'0 0.0
2018-Feb-17 05:30N 29°58' W 093°51'0 0.0
2018-Feb-17 05:00N 29°58' W 093°51'0 0.0
2018-Feb-17 04:30N 29°58' W 093°51'0 0.0
2018-Feb-17 04:00N 29°58' W 093°51'0 0.0
2018-Feb-17 03:31N 29°58' W 093°51'0 0.0
2018-Feb-17 03:00N 29°58' W 093°51'0 0.0
2018-Feb-17 02:30N 29°58' W 093°51'0 0.8
2018-Feb-17 02:00N 29°58' W 093°51'0 0.0
2018-Feb-17 01:30N 29°58' W 093°51'0 0.0
2018-Feb-17 01:00N 29°58' W 093°51'0 1.0
2018-Feb-17 00:30N 29°58' W 093°51'2 4.4
2018-Feb-17 00:00N 29°59' W 093°49'4 7.3
2018-Feb-16 23:30N 30°01' W 093°45'3 6.2
2018-Feb-16 22:59N 30°03' W 093°42'3 5.4
2018-Feb-16 22:30N 30°04' W 093°39'3 5.4
2018-Feb-16 22:00N 30°04' W 093°36'2 4.9
2018-Feb-16 21:30N 30°04' W 093°34'2 4.8
2018-Feb-16 21:00N 30°04' W 093°31'2 4.9
2018-Feb-16 20:30N 30°04' W 093°28'2 4.7
2018-Feb-16 20:00N 30°04' W 093°25'2 4.7
2018-Feb-16 19:30N 30°04' W 093°23'2 3.8
2018-Feb-16 19:00N 30°04' W 093°21'2 4.2
2018-Feb-16 18:30N 30°06' W 093°20'3 6.1
2018-Feb-16 18:00N 30°09' W 093°20'3 6.2
2018-Feb-16 17:30N 30°12' W 093°17'2 4.1
2018-Feb-16 17:00N 30°13' W 093°16'0 0.9
2018-Feb-16 16:30N 30°13' W 093°15'0 0.9
2018-Feb-16 16:00N 30°14' W 093°15'0 0.0
2018-Feb-16 15:30N 30°14' W 093°15'0 0.0
2018-Feb-16 15:00N 30°14' W 093°15'0 0.0
2018-Feb-16 14:30N 30°14' W 093°15'0 0.0
2018-Feb-16 14:00N 30°14' W 093°15'0 0.0
2018-Feb-16 13:30N 30°14' W 093°15'0 0.0
2018-Feb-16 13:00N 30°14' W 093°15'0 0.0
2018-Feb-16 12:30N 30°14' W 093°15'0 0.0
2018-Feb-16 11:57N 30°14' W 093°15'0 0.0
2018-Feb-16 11:30N 30°14' W 093°15'0 0.0
2018-Feb-16 11:00N 30°14' W 093°15'0 0.0
2018-Feb-16 10:30N 30°14' W 093°15'0 0.0
2018-Feb-16 09:59N 30°14' W 093°15'0 0.0
2018-Feb-16 09:23N 30°14' W 093°15'0 0.0
2018-Feb-16 08:58N 30°14' W 093°15'0 0.0
2018-Feb-16 08:30N 30°14' W 093°15'0 0.0
2018-Feb-16 08:00N 30°14' W 093°15'0 0.0
2018-Feb-16 07:29N 30°14' W 093°15'0 0.0
2018-Feb-16 06:59N 30°14' W 093°15'0 0.0
2018-Feb-16 06:30N 30°14' W 093°15'0 0.0
2018-Feb-16 06:00N 30°14' W 093°15'0 0.0
2018-Feb-16 05:28N 30°14' W 093°15'0 0.0
2018-Feb-16 05:00N 30°14' W 093°15'0 0.0
2018-Feb-16 04:28N 30°14' W 093°15'0 0.0
2018-Feb-16 03:59N 30°14' W 093°15'0 0.0
2018-Feb-16 03:30N 30°14' W 093°15'0 0.0
2018-Feb-16 03:00N 30°14' W 093°15'0 0.0
2018-Feb-16 02:14N 30°14' W 093°15'0 0.0
2018-Feb-16 01:43N 30°14' W 093°15'0 0.0
2018-Feb-16 01:20N 30°14' W 093°15'0 0.0
2018-Feb-16 01:00N 30°14' W 093°15'0 0.0
2018-Feb-16 00:19N 30°14' W 093°15'0 0.0
2018-Feb-15 23:46N 30°14' W 093°15'0 0.0
2018-Feb-15 23:30N 30°14' W 093°15'0 0.0
2018-Feb-15 22:47N 30°14' W 093°15'0 0.0
2018-Feb-15 22:30N 30°14' W 093°15'0 0.0
2018-Feb-15 21:59N 30°14' W 093°15'0 0.0
2018-Feb-15 21:30N 30°14' W 093°15'0 0.0
2018-Feb-15 20:59N 30°14' W 093°15'0 0.0
2018-Feb-15 20:30N 30°14' W 093°15'0 0.0
2018-Feb-15 19:57N 30°14' W 093°15'0 0.0
2018-Feb-15 19:30N 30°14' W 093°15'0 0.0
2018-Feb-15 19:00N 30°14' W 093°15'0 0.0
2018-Feb-15 18:22N 30°14' W 093°15'0 0.0
2018-Feb-15 17:52N 30°14' W 093°15'0 0.0
2018-Feb-15 17:30N 30°14' W 093°15'0 0.0
2018-Feb-15 17:00N 30°14' W 093°15'0 0.0
2018-Feb-15 16:30N 30°14' W 093°15'0 0.0
2018-Feb-15 15:57N 30°14' W 093°15'0 0.0
2018-Feb-15 14:54N 30°14' W 093°15'0 0.0
2018-Feb-15 13:56N 30°14' W 093°15'0 0.0
2018-Feb-15 13:27N 30°14' W 093°15'0 0.0
2018-Feb-15 12:31N 30°14' W 093°15'0 0.0
2018-Feb-15 12:20N 30°14' W 093°15'0 0.0
2018-Feb-15 10:06N 30°14' W 093°15'0 0.0
2018-Feb-15 09:52N 30°14' W 093°15'0 0.0
2018-Feb-15 09:30N 30°14' W 093°15'0 0.0
2018-Feb-15 08:50N 30°14' W 093°15'0 0.0
2018-Feb-15 08:26N 30°14' W 093°15'0 0.0
2018-Feb-15 07:53N 30°14' W 093°15'0 0.0
2018-Feb-15 07:28N 30°14' W 093°15'0 0.0
2018-Feb-15 06:55N 30°14' W 093°15'0 0.0
2018-Feb-15 06:25N 30°14' W 093°15'0 0.0
2018-Feb-15 05:56N 30°14' W 093°15'0 0.0
2018-Feb-15 05:30N 30°14' W 093°15'0 0.0
2018-Feb-15 05:00N 30°14' W 093°15'0 0.0
2018-Feb-15 04:23N 30°14' W 093°15'0 0.0
2018-Feb-15 04:00N 30°14' W 093°15'0 0.0
2018-Feb-15 03:30N 30°14' W 093°15'0 0.0
2018-Feb-15 02:57N 30°14' W 093°15'0 0.0
2018-Feb-15 02:18N 30°14' W 093°15'0 0.0
2018-Feb-15 01:54N 30°14' W 093°15'0 0.0
2018-Feb-15 00:31N 30°14' W 093°15'0 0.0
2018-Feb-15 00:30N 30°14' W 093°15'0 0.0
2018-Feb-14 23:59N 30°14' W 093°15'0 0.0
2018-Feb-14 23:30N 30°14' W 093°15'0 0.0
2018-Feb-14 23:00N 30°14' W 093°15'0 0.0
2018-Feb-14 22:30N 30°14' W 093°15'0 0.0
2018-Feb-14 21:59N 30°14' W 093°15'0 0.0
2018-Feb-14 21:20N 30°14' W 093°15'0 1.1
2018-Feb-14 21:00N 30°13' W 093°15'0 0.5
2018-Feb-14 20:30N 30°13' W 093°16'1 2.2
2018-Feb-14 20:00N 30°12' W 093°16'0 0.0
2018-Feb-14 19:30N 30°12' W 093°16'0 0.0
2018-Feb-14 19:00N 30°12' W 093°16'0 0.0
2018-Feb-14 18:30N 30°12' W 093°16'0 0.0
2018-Feb-14 18:00N 30°12' W 093°16'0 0.0
2018-Feb-14 17:30N 30°12' W 093°16'0 0.0
2018-Feb-14 17:00N 30°12' W 093°16'0 0.0
2018-Feb-14 16:30N 30°12' W 093°16'0 0.0
2018-Feb-14 16:00N 30°12' W 093°16'0 0.0
2018-Feb-14 15:30N 30°12' W 093°16'0 0.0
2018-Feb-14 15:00N 30°12' W 093°16'0 0.0
2018-Feb-14 14:30N 30°12' W 093°16'0 0.0
2018-Feb-14 14:00N 30°12' W 093°16'0 0.0
2018-Feb-14 13:30N 30°12' W 093°16'0 0.0
2018-Feb-14 13:00N 30°12' W 093°16'0 0.0
2018-Feb-14 12:30N 30°12' W 093°16'0 0.0
2018-Feb-14 12:00N 30°12' W 093°16'0 0.0
2018-Feb-14 11:30N 30°12' W 093°16'0 0.0
2018-Feb-14 11:00N 30°12' W 093°16'0 0.0
2018-Feb-14 10:30N 30°12' W 093°16'0 0.0
2018-Feb-14 10:00N 30°12' W 093°16'0 0.0
2018-Feb-14 09:30N 30°12' W 093°16'0 0.7
2018-Feb-14 09:00N 30°12' W 093°17'3 6.1
2018-Feb-14 08:30N 30°10' W 093°19'3 5.8
2018-Feb-14 08:00N 30°07' W 093°20'2 3.3
2018-Feb-14 07:30N 30°06' W 093°19'1 1.0
2018-Feb-14 07:00N 30°06' W 093°18'1 1.1
2018-Feb-14 06:30N 30°05' W 093°18'1 2.2
2018-Feb-14 06:00N 30°05' W 093°17'0 0.9
2018-Feb-14 05:30N 30°04' W 093°16'0 0.5
2018-Feb-14 05:00N 30°04' W 093°16'0 0.8
2018-Feb-14 04:30N 30°04' W 093°16'1 1.7
2018-Feb-14 04:00N 30°03' W 093°16'3 5.4
2018-Feb-14 03:30N 30°01' W 093°14'3 5.8
2018-Feb-14 03:00N 29°59' W 093°12'3 6.1
2018-Feb-14 02:30N 29°56' W 093°10'3 6.2
2018-Feb-14 02:00N 29°56' W 093°06'115 5.1
2018-Feb-13 03:15N 29°34' W 090°56'1 6.0
2018-Feb-13 03:00N 29°33' W 090°54'3 6.0
2018-Feb-13 02:30N 29°32' W 090°51'3 5.9
2018-Feb-13 02:00N 29°32' W 090°48'2 4.3
2018-Feb-13 01:30N 29°33' W 090°45'3 5.1
2018-Feb-13 01:00N 29°34' W 090°43'3 5.5
2018-Feb-13 00:30N 29°37' W 090°42'3 6.1
2018-Feb-13 00:00N 29°36' W 090°39'3 5.8
2018-Feb-12 23:30N 29°35' W 090°36'2 4.7
2018-Feb-12 23:00N 29°34' W 090°33'3 6.1
2018-Feb-12 22:30N 29°34' W 090°30'  

Dump ship's entire track history